createdAt,value
2017-09-12T00:01:00.066Z,998.7
2017-09-12T00:02:00.721Z,998.7
2017-09-12T00:03:01.374Z,998.7
2017-09-12T00:04:02.050Z,998.7
2017-09-12T00:05:02.704Z,998.6
2017-09-12T00:06:03.352Z,998.7
2017-09-12T00:07:04.005Z,998.7
2017-09-12T00:08:04.658Z,998.7
2017-09-12T00:09:05.312Z,998.8
2017-09-12T00:10:05.967Z,998.7
2017-09-12T00:11:06.619Z,998.8
2017-09-12T00:12:07.272Z,998.7
2017-09-12T00:13:07.923Z,998.8
2017-09-12T00:14:08.577Z,998.8
2017-09-12T00:15:09.257Z,998.8
2017-09-12T00:16:09.910Z,998.8
2017-09-12T00:17:10.565Z,998.8
2017-09-12T00:18:11.217Z,998.8
2017-09-12T00:19:11.897Z,998.9
2017-09-12T00:20:12.551Z,998.8
2017-09-12T00:21:13.198Z,998.9
2017-09-12T00:22:13.854Z,998.9
2017-09-12T00:23:14.509Z,998.9
2017-09-12T00:24:15.189Z,998.9
2017-09-12T00:25:15.837Z,998.8
2017-09-12T00:26:16.495Z,998.9
2017-09-12T00:27:17.148Z,998.8
2017-09-12T00:28:17.802Z,998.9
2017-09-12T00:29:18.454Z,998.9
2017-09-12T00:30:19.135Z,998.9
2017-09-12T00:31:19.758Z,998.9
2017-09-12T00:32:20.405Z,998.8
2017-09-12T00:33:21.060Z,998.9
2017-09-12T00:34:21.712Z,998.9
2017-09-12T00:35:22.362Z,998.8
2017-09-12T00:36:23.014Z,998.8
2017-09-12T00:37:23.664Z,998.8
2017-09-12T00:38:24.312Z,998.8
2017-09-12T00:39:24.968Z,998.8
2017-09-12T00:40:25.616Z,998.7
2017-09-12T00:41:26.270Z,998.7
2017-09-12T00:42:26.923Z,998.8
2017-09-12T00:43:27.574Z,998.7
2017-09-12T00:44:28.227Z,998.7
2017-09-12T00:45:28.880Z,998.7
2017-09-12T00:46:29.532Z,998.8
2017-09-12T00:47:30.189Z,998.7
2017-09-12T00:48:30.837Z,998.8
2017-09-12T00:49:31.516Z,998.7
2017-09-12T00:50:32.168Z,998.8
2017-09-12T00:51:32.823Z,998.8
2017-09-12T00:52:33.473Z,998.8
2017-09-12T00:53:34.127Z,998.8
2017-09-12T00:54:34.780Z,998.8
2017-09-12T00:55:35.435Z,998.8
2017-09-12T00:56:36.083Z,998.8
2017-09-12T00:57:36.736Z,998.9
2017-09-12T00:58:37.385Z,998.8
2017-09-12T00:59:38.040Z,998.8
2017-09-12T01:00:38.690Z,998.8
2017-09-12T01:01:39.341Z,998.8
2017-09-12T01:02:39.992Z,998.8
2017-09-12T01:03:40.646Z,998.8
2017-09-12T01:04:41.304Z,998.8
2017-09-12T01:05:41.950Z,998.8
2017-09-12T01:06:42.604Z,998.8
2017-09-12T01:07:43.285Z,998.8
2017-09-12T01:08:43.938Z,998.8
2017-09-12T01:09:44.592Z,998.8
2017-09-12T01:10:45.245Z,998.8
2017-09-12T01:11:45.898Z,998.8
2017-09-12T01:12:46.555Z,998.8
2017-09-12T01:13:47.204Z,998.8
2017-09-12T01:14:47.851Z,998.8
2017-09-12T01:15:48.504Z,998.8
2017-09-12T01:16:49.157Z,998.8
2017-09-12T01:17:49.809Z,998.8
2017-09-12T01:18:50.462Z,998.8
2017-09-12T01:19:51.110Z,998.8
2017-09-12T01:20:51.767Z,998.8
2017-09-12T01:21:52.452Z,998.9
2017-09-12T01:22:53.105Z,998.9
2017-09-12T01:23:53.784Z,998.8
2017-09-12T01:24:54.438Z,998.8
2017-09-12T01:25:55.086Z,998.8
2017-09-12T01:26:55.743Z,998.8
2017-09-12T01:27:56.391Z,998.8
2017-09-12T01:28:57.044Z,998.8
2017-09-12T01:29:57.696Z,998.7
2017-09-12T01:30:58.349Z,998.9
2017-09-12T01:31:58.998Z,998.9
2017-09-12T01:32:59.652Z,998.9
2017-09-12T01:34:00.303Z,998.9
2017-09-12T01:35:00.952Z,998.9
2017-09-12T01:36:01.599Z,998.9
2017-09-12T01:37:02.289Z,998.9
2017-09-12T01:38:02.943Z,998.9
2017-09-12T01:39:03.593Z,998.9
2017-09-12T01:40:04.256Z,998.9
2017-09-12T01:41:04.896Z,998.8
2017-09-12T01:42:05.575Z,998.8
2017-09-12T01:43:06.232Z,998.8
2017-09-12T01:44:06.911Z,998.8
2017-09-12T01:45:07.592Z,998.8
2017-09-12T01:46:08.247Z,998.8
2017-09-12T01:47:08.896Z,998.8
2017-09-12T01:48:09.549Z,998.8
2017-09-12T01:49:10.202Z,998.8
2017-09-12T01:50:10.854Z,998.8
2017-09-12T01:51:11.504Z,998.8
2017-09-12T01:52:12.157Z,998.8
2017-09-12T01:53:12.811Z,998.7
2017-09-12T01:54:13.461Z,998.8
2017-09-12T01:55:14.116Z,998.7
2017-09-12T01:56:14.770Z,998.6
2017-09-12T01:57:15.422Z,998.7
2017-09-12T01:58:16.102Z,998.7
2017-09-12T01:59:16.782Z,998.7
2017-09-12T02:00:17.434Z,998.7
2017-09-12T02:01:18.087Z,998.7
2017-09-12T02:02:18.746Z,998.8
2017-09-12T02:03:19.396Z,998.8
2017-09-12T02:04:20.077Z,998.7
2017-09-12T02:05:20.731Z,998.7
2017-09-12T02:06:21.387Z,998.8
2017-09-12T02:07:22.039Z,998.8
2017-09-12T02:08:22.694Z,998.8
2017-09-12T02:09:23.349Z,998.7
2017-09-12T02:10:24.002Z,998.8
2017-09-12T02:11:24.659Z,998.8
2017-09-12T02:12:25.310Z,998.8
2017-09-12T02:13:25.957Z,998.8
2017-09-12T02:14:26.606Z,998.8
2017-09-12T02:15:27.265Z,998.8
2017-09-12T02:16:27.947Z,998.8
2017-09-12T02:17:28.604Z,998.8
2017-09-12T02:18:29.283Z,998.8
2017-09-12T02:19:29.936Z,998.7
2017-09-12T02:20:30.592Z,998.8
2017-09-12T02:21:31.271Z,998.7
2017-09-12T02:22:31.925Z,998.7
2017-09-12T02:23:32.580Z,998.7
2017-09-12T02:24:33.231Z,998.7
2017-09-12T02:25:33.885Z,998.7
2017-09-12T02:26:34.536Z,998.7
2017-09-12T02:27:35.186Z,998.7
2017-09-12T02:28:35.843Z,998.7
2017-09-12T02:29:36.493Z,998.7
2017-09-12T02:30:37.144Z,998.8
2017-09-12T02:31:37.800Z,998.8
2017-09-12T02:32:38.451Z,998.8
2017-09-12T02:33:39.103Z,998.8
2017-09-12T02:34:39.785Z,998.8
2017-09-12T02:35:40.472Z,998.7
2017-09-12T02:36:41.125Z,998.7
2017-09-12T02:37:41.773Z,998.7
2017-09-12T02:38:42.430Z,998.7
2017-09-12T02:39:43.103Z,998.7
2017-09-12T02:40:43.760Z,998.7
2017-09-12T02:41:44.416Z,998.7
2017-09-12T02:42:45.072Z,998.6
2017-09-12T02:43:45.725Z,998.7
2017-09-12T02:44:46.380Z,998.6
2017-09-12T02:45:47.030Z,998.6
2017-09-12T02:46:47.687Z,998.7
2017-09-12T02:47:48.335Z,998.7
2017-09-12T02:48:48.987Z,998.6
2017-09-12T02:49:49.640Z,998.7
2017-09-12T02:50:50.296Z,998.8
2017-09-12T02:51:50.945Z,998.8
2017-09-12T02:52:51.597Z,998.8
2017-09-12T02:53:52.250Z,998.8
2017-09-12T02:54:52.903Z,998.9
2017-09-12T02:55:53.580Z,998.8
2017-09-12T02:56:54.235Z,998.9
2017-09-12T02:57:54.892Z,998.9
2017-09-12T02:58:55.544Z,998.9
2017-09-12T02:59:56.196Z,999.0
2017-09-12T03:00:56.850Z,999.0
2017-09-12T03:01:57.502Z,999.0
2017-09-12T03:02:58.159Z,998.9
2017-09-12T03:03:58.807Z,998.9
2017-09-12T03:04:59.457Z,998.9
2017-09-12T03:06:00.108Z,998.9
2017-09-12T03:07:00.761Z,998.9
2017-09-12T03:08:01.412Z,998.9
2017-09-12T03:09:02.064Z,998.9
2017-09-12T03:10:02.714Z,999.0
2017-09-12T03:11:03.367Z,999.0
2017-09-12T03:12:04.019Z,999.0
2017-09-12T03:13:04.672Z,999.0
2017-09-12T03:14:05.320Z,999.0
2017-09-12T03:15:05.971Z,999.0
2017-09-12T03:16:06.625Z,999.0
2017-09-12T03:17:07.276Z,999.0
2017-09-12T03:18:07.929Z,999.0
2017-09-12T03:19:08.606Z,998.9
2017-09-12T03:20:09.261Z,999.0
2017-09-12T03:21:09.917Z,999.0
2017-09-12T03:22:10.570Z,999.0
2017-09-12T03:23:11.224Z,999.0
2017-09-12T03:24:11.879Z,999.0
2017-09-12T03:25:12.561Z,999.0
2017-09-12T03:26:13.210Z,999.0
2017-09-12T03:27:13.867Z,999.0
2017-09-12T03:28:14.546Z,999.0
2017-09-12T03:29:15.229Z,999.0
2017-09-12T03:30:15.892Z,999.0
2017-09-12T03:31:16.535Z,998.9
2017-09-12T03:32:17.189Z,999.0
2017-09-12T03:33:17.838Z,999.0
2017-09-12T03:34:18.494Z,999.0
2017-09-12T03:35:19.144Z,999.0
2017-09-12T03:36:19.808Z,999.0
2017-09-12T03:37:20.510Z,999.0
2017-09-12T03:38:21.165Z,999.1
2017-09-12T03:39:21.822Z,999.1
2017-09-12T03:40:22.472Z,999.0
2017-09-12T03:41:23.124Z,999.1
2017-09-12T03:42:23.776Z,999.1
2017-09-12T03:43:24.431Z,999.1
2017-09-12T03:44:25.082Z,999.2
2017-09-12T03:45:25.735Z,999.2
2017-09-12T03:46:26.385Z,999.1
2017-09-12T03:47:27.039Z,999.1
2017-09-12T03:48:27.693Z,999.2
2017-09-12T03:49:28.343Z,999.2
2017-09-12T03:50:29.001Z,999.2
2017-09-12T03:51:29.649Z,999.3
2017-09-12T03:52:30.307Z,999.2
2017-09-12T03:53:30.958Z,999.2
2017-09-12T03:54:31.606Z,999.2
2017-09-12T03:55:32.261Z,999.2
2017-09-12T03:56:32.913Z,999.2
2017-09-12T03:57:33.597Z,999.2
2017-09-12T03:58:34.247Z,999.2
2017-09-12T03:59:34.901Z,999.2
2017-09-12T04:00:35.553Z,999.2
2017-09-12T04:01:36.238Z,999.3
2017-09-12T04:02:36.891Z,999.2
2017-09-12T04:03:37.547Z,999.2
2017-09-12T04:04:38.200Z,999.3
2017-09-12T04:05:38.851Z,999.2
2017-09-12T04:06:39.504Z,999.2
2017-09-12T04:07:40.185Z,999.2
2017-09-12T04:08:40.890Z,999.3
2017-09-12T04:09:41.572Z,999.2
2017-09-12T04:10:42.221Z,999.2
2017-09-12T04:11:42.876Z,999.2
2017-09-12T04:12:43.529Z,999.2
2017-09-12T04:13:44.183Z,999.2
2017-09-12T04:14:44.836Z,999.2
2017-09-12T04:15:45.489Z,999.2
2017-09-12T04:16:46.140Z,999.2
2017-09-12T04:17:46.798Z,999.2
2017-09-12T04:18:47.452Z,999.2
2017-09-12T04:19:48.103Z,999.1
2017-09-12T04:20:48.786Z,999.1
2017-09-12T04:21:49.442Z,999.2
2017-09-12T04:22:50.126Z,999.2
2017-09-12T04:23:50.781Z,999.2
2017-09-12T04:24:51.437Z,999.2
2017-09-12T04:25:52.088Z,999.3
2017-09-12T04:26:52.745Z,999.3
2017-09-12T04:27:53.426Z,999.3
2017-09-12T04:28:54.110Z,999.3
2017-09-12T04:29:54.771Z,999.3
2017-09-12T04:30:55.453Z,999.3
2017-09-12T04:31:56.106Z,999.4
2017-09-12T04:32:56.767Z,999.3
2017-09-12T04:33:57.422Z,999.2
2017-09-12T04:34:58.082Z,999.3
2017-09-12T04:35:58.734Z,999.3
2017-09-12T04:36:59.384Z,999.3
2017-09-12T04:38:00.042Z,999.3
2017-09-12T04:39:00.700Z,999.3
2017-09-12T04:40:01.351Z,999.3
2017-09-12T04:41:02.005Z,999.3
2017-09-12T04:42:02.662Z,999.2
2017-09-12T04:43:03.353Z,999.4
2017-09-12T04:44:04.007Z,999.4
2017-09-12T04:45:04.665Z,999.4
2017-09-12T04:46:05.321Z,999.4
2017-09-12T04:47:05.976Z,999.4
2017-09-12T04:48:06.633Z,999.4
2017-09-12T04:49:07.288Z,999.4
2017-09-12T04:50:07.944Z,999.4
2017-09-12T04:51:08.609Z,999.4
2017-09-12T04:52:09.252Z,999.4
2017-09-12T04:53:09.910Z,999.4
2017-09-12T04:54:10.571Z,999.5
2017-09-12T04:55:11.224Z,999.4
2017-09-12T04:56:11.881Z,999.5
2017-09-12T04:57:12.556Z,999.5
2017-09-12T04:58:13.195Z,999.5
2017-09-12T04:59:13.848Z,999.5
2017-09-12T05:00:14.504Z,999.5
2017-09-12T05:01:15.160Z,999.5
2017-09-12T05:02:15.828Z,999.6
2017-09-12T05:03:16.477Z,999.7
2017-09-12T05:04:17.134Z,999.6
2017-09-12T05:05:17.818Z,999.7
2017-09-12T05:06:18.478Z,999.7
2017-09-12T05:07:19.133Z,999.7
2017-09-12T05:08:19.788Z,999.7
2017-09-12T05:09:20.446Z,999.7
2017-09-12T05:10:21.106Z,999.7
2017-09-12T05:11:21.794Z,999.7
2017-09-12T05:12:22.447Z,999.6
2017-09-12T05:13:23.103Z,999.7
2017-09-12T05:14:23.764Z,999.7
2017-09-12T05:15:24.422Z,999.7
2017-09-12T05:16:25.078Z,999.7
2017-09-12T05:17:25.737Z,999.7
2017-09-12T05:18:26.400Z,999.7
2017-09-12T05:19:27.051Z,999.7
2017-09-12T05:20:27.711Z,999.8
2017-09-12T05:21:28.369Z,999.7
2017-09-12T05:22:29.028Z,999.7
2017-09-12T05:23:29.687Z,999.7
2017-09-12T05:24:30.369Z,999.7
2017-09-12T05:25:31.035Z,999.8
2017-09-12T05:26:31.690Z,999.8
2017-09-12T05:27:32.375Z,999.8
2017-09-12T05:28:33.032Z,999.7
2017-09-12T05:29:33.690Z,999.8
2017-09-12T05:30:34.345Z,999.9
2017-09-12T05:31:35.008Z,999.8
2017-09-12T05:32:35.662Z,999.9
2017-09-12T05:33:36.323Z,999.9
2017-09-12T05:34:36.983Z,999.9
2017-09-12T05:35:37.639Z,999.8
2017-09-12T05:36:38.299Z,999.9
2017-09-12T05:37:38.957Z,999.9
2017-09-12T05:38:39.614Z,999.9
2017-09-12T05:39:40.272Z,999.9
2017-09-12T05:40:40.934Z,1000.0
2017-09-12T05:41:41.593Z,1000.0
2017-09-12T05:42:42.249Z,1000.0
2017-09-12T05:43:42.911Z,1000.0
2017-09-12T05:44:43.566Z,1000.0
2017-09-12T05:45:44.228Z,999.9
2017-09-12T05:46:44.883Z,999.9
2017-09-12T05:47:45.542Z,999.9
2017-09-12T05:48:46.200Z,999.9
2017-09-12T05:49:46.857Z,999.9
2017-09-12T05:50:47.515Z,999.9
2017-09-12T05:51:48.174Z,999.9
2017-09-12T05:52:48.829Z,999.9
2017-09-12T05:53:49.487Z,999.9
2017-09-12T05:54:50.152Z,999.9
2017-09-12T05:55:50.807Z,999.9
2017-09-12T05:56:51.496Z,999.9
2017-09-12T05:57:52.150Z,999.9
2017-09-12T05:58:52.810Z,999.9
2017-09-12T05:59:53.466Z,999.9
2017-09-12T06:00:54.125Z,999.9
2017-09-12T06:01:54.782Z,999.9
2017-09-12T06:02:55.442Z,999.9
2017-09-12T06:03:56.129Z,999.9
2017-09-12T06:04:56.788Z,999.9
2017-09-12T06:05:57.446Z,999.9
2017-09-12T06:06:58.104Z,999.9
2017-09-12T06:07:58.791Z,999.9
2017-09-12T06:08:59.444Z,1000.0
2017-09-12T06:10:00.103Z,1000.0
2017-09-12T06:11:00.797Z,1000.0
2017-09-12T06:12:01.456Z,1000.0
2017-09-12T06:13:02.114Z,1000.0
2017-09-12T06:14:02.775Z,1000.0
2017-09-12T06:15:03.435Z,1000.0
2017-09-12T06:16:04.094Z,1000.0
2017-09-12T06:17:04.757Z,1000.1
2017-09-12T06:18:05.425Z,1000.1
2017-09-12T06:19:06.077Z,1000.0
2017-09-12T06:20:06.735Z,1000.0
2017-09-12T06:21:07.492Z,1000.0
2017-09-12T06:22:08.313Z,1000.0
2017-09-12T06:23:08.973Z,1000.0
2017-09-12T06:24:09.635Z,1000.0
2017-09-12T06:25:10.290Z,1000.0
2017-09-12T06:26:10.954Z,1000.0
2017-09-12T06:27:11.610Z,999.9
2017-09-12T06:28:12.332Z,1000.0
2017-09-12T06:29:12.994Z,1000.0
2017-09-12T06:30:13.655Z,1000.0
2017-09-12T06:31:14.312Z,1000.0
2017-09-12T06:32:14.992Z,1000.0
2017-09-12T06:33:15.630Z,1000.0
2017-09-12T06:34:16.290Z,999.9
2017-09-12T06:35:16.947Z,999.9
2017-09-12T06:36:17.604Z,999.9
2017-09-12T06:37:18.292Z,999.9
2017-09-12T06:38:18.952Z,999.9
2017-09-12T06:39:19.605Z,999.9
2017-09-12T06:40:20.268Z,999.9
2017-09-12T06:41:20.930Z,999.9
2017-09-12T06:42:21.586Z,999.9
2017-09-12T06:43:22.248Z,999.9
2017-09-12T06:44:22.904Z,999.9
2017-09-12T06:45:23.562Z,999.9
2017-09-12T06:46:24.222Z,999.9
2017-09-12T06:47:24.886Z,999.9
2017-09-12T06:48:25.543Z,1000.0
2017-09-12T06:49:26.202Z,1000.0
2017-09-12T06:50:26.863Z,1000.1
2017-09-12T06:51:27.529Z,1000.0
2017-09-12T06:52:28.182Z,1000.1
2017-09-12T06:53:28.844Z,1000.1
2017-09-12T06:54:29.505Z,1000.1
2017-09-12T06:55:30.165Z,1000.2
2017-09-12T06:56:30.824Z,1000.2
2017-09-12T06:57:31.511Z,1000.2
2017-09-12T06:58:32.173Z,1000.2
2017-09-12T06:59:32.833Z,1000.1
2017-09-12T07:00:33.495Z,1000.1
2017-09-12T07:01:34.156Z,1000.2
2017-09-12T07:02:34.821Z,1000.2
2017-09-12T07:03:35.480Z,1000.2
2017-09-12T07:04:36.139Z,1000.2
2017-09-12T07:05:36.805Z,1000.2
2017-09-12T07:06:37.463Z,1000.2
2017-09-12T07:07:38.158Z,1000.2
2017-09-12T07:08:38.816Z,1000.2
2017-09-12T07:09:39.476Z,1000.2
2017-09-12T07:10:40.139Z,1000.2
2017-09-12T07:11:40.827Z,1000.2
2017-09-12T07:12:41.489Z,1000.3
2017-09-12T07:13:42.149Z,1000.2
2017-09-12T07:14:42.838Z,1000.3
2017-09-12T07:15:43.502Z,1000.3
2017-09-12T07:16:44.167Z,1000.3
2017-09-12T07:17:44.825Z,1000.3
2017-09-12T07:18:45.488Z,1000.3
2017-09-12T07:19:46.149Z,1000.3
2017-09-12T07:20:46.806Z,1000.4
2017-09-12T07:21:47.472Z,1000.3
2017-09-12T07:22:48.137Z,1000.4
2017-09-12T07:23:48.794Z,1000.5
2017-09-12T07:24:49.455Z,1000.5
2017-09-12T07:25:50.116Z,1000.4
2017-09-12T07:26:50.776Z,1000.4
2017-09-12T07:27:51.439Z,1000.5
2017-09-12T07:28:52.104Z,1000.5
2017-09-12T07:29:52.794Z,1000.6
2017-09-12T07:30:53.590Z,1000.6
2017-09-12T07:31:54.247Z,1000.7
2017-09-12T07:32:54.907Z,1000.7
2017-09-12T07:33:55.592Z,1000.7
2017-09-12T07:34:56.255Z,1000.8
2017-09-12T07:35:56.915Z,1000.8
2017-09-12T07:36:57.578Z,1000.8
2017-09-12T07:37:58.244Z,1000.8
2017-09-12T07:38:58.905Z,1000.9
2017-09-12T07:39:59.564Z,1000.8
2017-09-12T07:41:00.259Z,1000.8
2017-09-12T07:42:00.925Z,1000.7
2017-09-12T07:43:01.582Z,1000.8
2017-09-12T07:44:02.242Z,1000.7
2017-09-12T07:45:02.905Z,1000.7
2017-09-12T07:46:03.567Z,1000.7
2017-09-12T07:47:04.232Z,1000.7
2017-09-12T07:48:04.897Z,1000.7
2017-09-12T07:49:05.555Z,1000.6
2017-09-12T07:50:06.222Z,1000.7
2017-09-12T07:51:06.881Z,1000.7
2017-09-12T07:52:07.541Z,1000.8
2017-09-12T07:53:08.213Z,1000.8
2017-09-12T07:54:08.866Z,1000.9
2017-09-12T07:55:09.528Z,1000.9
2017-09-12T07:56:10.188Z,1000.9
2017-09-12T07:57:10.852Z,1000.9
2017-09-12T07:58:11.519Z,1000.9
2017-09-12T07:59:12.181Z,1000.9
2017-09-12T08:00:12.843Z,1000.9
2017-09-12T08:01:13.534Z,1000.9
2017-09-12T08:02:14.197Z,1001.0
2017-09-12T08:03:14.888Z,1001.2
2017-09-12T08:04:15.554Z,1001.3
2017-09-12T08:05:16.218Z,1001.3
2017-09-12T08:06:16.882Z,1001.2
2017-09-12T08:07:17.544Z,1001.2
2017-09-12T08:08:18.208Z,1001.3
2017-09-12T08:09:18.870Z,1001.3
2017-09-12T08:10:19.533Z,1001.3
2017-09-12T08:11:20.196Z,1001.3
2017-09-12T08:12:20.862Z,1001.3
2017-09-12T08:13:21.526Z,1001.2
2017-09-12T08:14:22.189Z,1001.2
2017-09-12T08:15:22.852Z,1001.3
2017-09-12T08:16:23.521Z,1001.3
2017-09-12T08:17:24.212Z,1001.4
2017-09-12T08:18:24.877Z,1001.3
2017-09-12T08:19:25.541Z,1001.4
2017-09-12T08:20:26.206Z,1001.4
2017-09-12T08:21:26.868Z,1001.4
2017-09-12T08:22:27.534Z,1001.4
2017-09-12T08:23:28.196Z,1001.4
2017-09-12T08:24:28.859Z,1001.4
2017-09-12T08:25:29.521Z,1001.5
2017-09-12T08:26:30.182Z,1001.4
2017-09-12T08:27:30.846Z,1001.4
2017-09-12T08:28:31.510Z,1001.4
2017-09-12T08:29:32.181Z,1001.5
2017-09-12T08:30:32.836Z,1001.4
2017-09-12T08:31:33.505Z,1001.5
2017-09-12T08:32:34.166Z,1001.5
2017-09-12T08:33:34.834Z,1001.5
2017-09-12T08:34:35.495Z,1001.5
2017-09-12T08:35:36.160Z,1001.5
2017-09-12T08:36:36.825Z,1001.5
2017-09-12T08:37:37.516Z,1001.5
2017-09-12T08:38:38.182Z,1001.6
2017-09-12T08:39:38.873Z,1001.7
2017-09-12T08:40:39.539Z,1001.6
2017-09-12T08:41:40.202Z,1001.6
2017-09-12T08:42:40.865Z,1001.5
2017-09-12T08:43:41.536Z,1001.6
2017-09-12T08:44:42.197Z,1001.5
2017-09-12T08:45:42.858Z,1001.5
2017-09-12T08:46:43.522Z,1001.3
2017-09-12T08:47:44.186Z,1001.3
2017-09-12T08:48:44.855Z,1001.5
2017-09-12T08:49:45.521Z,1001.5
2017-09-12T08:50:46.183Z,1001.5
2017-09-12T08:51:46.847Z,1001.4
2017-09-12T08:52:47.515Z,1001.5
2017-09-12T08:53:48.179Z,1001.5
2017-09-12T08:54:48.847Z,1001.5
2017-09-12T08:55:49.513Z,1001.5
2017-09-12T08:56:50.181Z,1001.6
2017-09-12T08:57:50.851Z,1001.6
2017-09-12T08:58:51.514Z,1001.5
2017-09-12T08:59:52.181Z,1001.4
2017-09-12T09:00:52.850Z,1001.6
2017-09-12T09:01:53.513Z,1001.6
2017-09-12T09:02:54.182Z,1001.7
2017-09-12T09:03:54.847Z,1001.7
2017-09-12T09:04:55.516Z,1001.4
2017-09-12T09:05:56.181Z,1001.3
2017-09-12T09:06:56.844Z,1001.4
2017-09-12T09:07:57.514Z,1001.4
2017-09-12T09:08:58.181Z,1001.4
2017-09-12T09:09:58.845Z,1001.5
2017-09-12T09:10:59.508Z,1001.5
2017-09-12T09:12:00.176Z,1001.6
2017-09-12T09:13:00.873Z,1001.6
2017-09-12T09:14:01.544Z,1001.6
2017-09-12T09:15:02.204Z,1001.7
2017-09-12T09:16:02.880Z,1001.7
2017-09-12T09:17:03.543Z,1001.8
2017-09-12T09:18:04.208Z,1001.7
2017-09-12T09:19:04.874Z,1001.7
2017-09-12T09:20:05.542Z,1001.8
2017-09-12T09:21:06.208Z,1001.7
2017-09-12T09:22:06.872Z,1001.7
2017-09-12T09:23:07.554Z,1001.8
2017-09-12T09:24:08.218Z,1001.8
2017-09-12T09:25:08.884Z,1001.8
2017-09-12T09:26:09.555Z,1001.8
2017-09-12T09:27:10.223Z,1001.8
2017-09-12T09:28:10.887Z,1001.8
2017-09-12T09:29:11.581Z,1001.7
2017-09-12T09:30:12.248Z,1001.8
2017-09-12T09:31:12.967Z,1001.8
2017-09-12T09:32:13.664Z,1001.8
2017-09-12T09:33:14.325Z,1001.8
2017-09-12T09:34:14.992Z,1001.8
2017-09-12T09:35:15.661Z,1001.9
2017-09-12T09:36:16.326Z,1001.8
2017-09-12T09:37:16.997Z,1001.9
2017-09-12T09:38:17.659Z,1001.9
2017-09-12T09:39:18.318Z,1001.9
2017-09-12T09:40:18.987Z,1001.9
2017-09-12T09:41:19.653Z,1001.8
2017-09-12T09:42:20.318Z,1001.8
2017-09-12T09:43:20.986Z,1001.8
2017-09-12T09:44:21.667Z,1001.8
2017-09-12T09:45:22.347Z,1001.7
2017-09-12T09:46:23.014Z,1001.6
2017-09-12T09:47:23.680Z,1001.6
2017-09-12T09:48:24.339Z,1001.6
2017-09-12T09:49:25.004Z,1001.7
2017-09-12T09:50:25.674Z,1001.5
2017-09-12T09:51:26.332Z,1001.5
2017-09-12T09:52:27.199Z,1001.6
2017-09-12T09:53:27.863Z,1001.6
2017-09-12T09:54:28.561Z,1001.7
2017-09-12T09:55:29.223Z,1001.7
2017-09-12T09:56:29.888Z,1001.7
2017-09-12T09:57:30.549Z,1001.6
2017-09-12T09:58:31.211Z,1001.6
2017-09-12T09:59:31.876Z,1001.6
2017-09-12T10:00:32.534Z,1001.6
2017-09-12T10:01:33.193Z,1001.7
2017-09-12T10:02:33.858Z,1001.7
2017-09-12T10:03:34.518Z,1001.7
2017-09-12T10:04:35.200Z,1001.7
2017-09-12T10:05:35.872Z,1001.7
2017-09-12T10:06:36.539Z,1001.9
2017-09-12T10:07:37.233Z,1001.8
2017-09-12T10:08:37.894Z,1001.7
2017-09-12T10:09:38.561Z,1001.8
2017-09-12T10:10:39.221Z,1001.7
2017-09-12T10:11:39.887Z,1001.7
2017-09-12T10:12:40.546Z,1001.8
2017-09-12T10:13:41.210Z,1001.9
2017-09-12T10:14:41.875Z,1001.9
2017-09-12T10:15:42.536Z,1002.0
2017-09-12T10:16:43.199Z,1001.9
2017-09-12T10:17:43.863Z,1001.9
2017-09-12T10:18:44.525Z,1001.9
2017-09-12T10:19:45.186Z,1001.8
2017-09-12T10:20:45.851Z,1001.9
2017-09-12T10:21:46.515Z,1001.8
2017-09-12T10:22:47.181Z,1001.9
2017-09-12T10:23:47.841Z,1001.9
2017-09-12T10:24:48.508Z,1001.9
2017-09-12T10:25:49.176Z,1001.9
2017-09-12T10:26:49.837Z,1001.9
2017-09-12T10:27:50.524Z,1001.8
2017-09-12T10:28:51.189Z,1001.9
2017-09-12T10:29:51.853Z,1001.9
2017-09-12T10:30:52.517Z,1001.9
2017-09-12T10:31:53.180Z,1002.0
2017-09-12T10:32:53.843Z,1002.0
2017-09-12T10:33:54.539Z,1001.9
2017-09-12T10:34:55.205Z,1002.0
2017-09-12T10:35:55.867Z,1002.0
2017-09-12T10:36:56.536Z,1002.1
2017-09-12T10:37:57.193Z,1002.1
2017-09-12T10:38:57.857Z,1002.2
2017-09-12T10:39:58.523Z,1002.2
2017-09-12T10:40:59.187Z,1002.2
2017-09-12T10:41:59.847Z,1002.2
2017-09-12T10:43:00.509Z,1002.2
2017-09-12T10:44:01.175Z,1002.3
2017-09-12T10:45:01.866Z,1002.3
2017-09-12T10:46:02.561Z,1002.2
2017-09-12T10:47:03.223Z,1002.2
2017-09-12T10:48:03.886Z,1002.2
2017-09-12T10:49:04.554Z,1002.3
2017-09-12T10:50:05.220Z,1002.3
2017-09-12T10:51:05.894Z,1002.3
2017-09-12T10:52:06.548Z,1002.3
2017-09-12T10:53:07.210Z,1002.3
2017-09-12T10:54:07.877Z,1002.4
2017-09-12T10:55:08.549Z,1002.4
2017-09-12T10:56:09.212Z,1002.4
2017-09-12T10:57:09.871Z,1002.5
2017-09-12T10:58:10.535Z,1002.5
2017-09-12T10:59:11.202Z,1002.4
2017-09-12T11:00:11.869Z,1002.5
2017-09-12T11:01:12.537Z,1002.5
2017-09-12T11:02:13.233Z,1002.6
2017-09-12T11:03:13.899Z,1002.6
2017-09-12T11:04:14.563Z,1002.6
2017-09-12T11:05:15.231Z,1002.6
2017-09-12T11:06:15.897Z,1002.6
2017-09-12T11:07:16.592Z,1002.6
2017-09-12T11:08:17.258Z,1002.6
2017-09-12T11:09:17.923Z,1002.5
2017-09-12T11:10:18.587Z,1002.5
2017-09-12T11:11:19.254Z,1002.5
2017-09-12T11:12:19.921Z,1002.5
2017-09-12T11:13:20.587Z,1002.5
2017-09-12T11:14:21.294Z,1002.6
2017-09-12T11:15:21.955Z,1002.6
2017-09-12T11:16:22.620Z,1002.5
2017-09-12T11:17:23.286Z,1002.6
2017-09-12T11:18:23.951Z,1002.6
2017-09-12T11:19:24.616Z,1002.5
2017-09-12T11:20:25.279Z,1002.6
2017-09-12T11:21:25.945Z,1002.7
2017-09-12T11:22:26.606Z,1002.7
2017-09-12T11:23:27.274Z,1002.7
2017-09-12T11:24:27.942Z,1002.7
2017-09-12T11:25:28.619Z,1002.8
2017-09-12T11:26:29.310Z,1002.8
2017-09-12T11:27:29.969Z,1002.8
2017-09-12T11:28:30.629Z,1002.8
2017-09-12T11:29:31.302Z,1002.8
2017-09-12T11:30:31.967Z,1002.8
2017-09-12T11:31:32.658Z,1002.8
2017-09-12T11:32:33.327Z,1002.8
2017-09-12T11:33:33.993Z,1002.7
2017-09-12T11:34:34.655Z,1002.7
2017-09-12T11:35:35.326Z,1002.7
2017-09-12T11:36:35.997Z,1002.7
2017-09-12T11:37:36.660Z,1002.8
2017-09-12T11:38:37.358Z,1002.7
2017-09-12T11:39:38.025Z,1002.8
2017-09-12T11:40:38.686Z,1002.8
2017-09-12T11:41:39.353Z,1002.7
2017-09-12T11:42:40.021Z,1002.7
2017-09-12T11:43:40.689Z,1002.7
2017-09-12T11:44:41.353Z,1002.8
2017-09-12T11:45:42.022Z,1002.8
2017-09-12T11:46:42.686Z,1002.7
2017-09-12T11:47:43.358Z,1002.8
2017-09-12T11:48:44.024Z,1002.8
2017-09-12T11:49:44.685Z,1002.8
2017-09-12T11:50:45.356Z,1002.8
2017-09-12T11:51:46.035Z,1002.8
2017-09-12T11:52:46.718Z,1002.8
2017-09-12T11:53:47.383Z,1002.8
2017-09-12T11:54:48.050Z,1002.8
2017-09-12T11:55:48.716Z,1002.8
2017-09-12T11:56:49.387Z,1002.8
2017-09-12T11:57:50.052Z,1002.8
2017-09-12T11:58:50.719Z,1002.8
2017-09-12T11:59:51.385Z,1002.8
2017-09-12T12:00:52.051Z,1002.8
2017-09-12T12:01:52.717Z,1002.9
2017-09-12T12:02:53.384Z,1002.8
2017-09-12T12:03:54.051Z,1002.8
2017-09-12T12:04:54.717Z,1002.9
2017-09-12T12:05:55.377Z,1002.9
2017-09-12T12:06:56.045Z,1002.9
2017-09-12T12:07:56.710Z,1002.9
2017-09-12T12:08:57.376Z,1002.9
2017-09-12T12:09:58.045Z,1003.0
2017-09-12T12:10:58.704Z,1003.0
2017-09-12T12:11:59.368Z,1002.9
2017-09-12T12:13:00.035Z,1002.9
2017-09-12T12:14:00.702Z,1002.9
2017-09-12T12:15:01.368Z,1003.0
2017-09-12T12:16:02.033Z,1002.9
2017-09-12T12:17:02.696Z,1002.9
2017-09-12T12:18:03.362Z,1002.9
2017-09-12T12:19:04.030Z,1002.9
2017-09-12T12:20:04.695Z,1002.9
2017-09-12T12:21:05.358Z,1003.0
2017-09-12T12:22:06.025Z,1003.0
2017-09-12T12:23:06.692Z,1002.9
2017-09-12T12:24:07.359Z,1003.0
2017-09-12T12:25:08.026Z,1002.9
2017-09-12T12:26:08.722Z,1002.9
2017-09-12T12:27:09.356Z,1002.9
2017-09-12T12:28:10.018Z,1002.9
2017-09-12T12:29:10.687Z,1002.9
2017-09-12T12:30:11.383Z,1002.9
2017-09-12T12:31:12.051Z,1002.9
2017-09-12T12:32:12.719Z,1002.8
2017-09-12T12:33:13.385Z,1002.8
2017-09-12T12:34:14.046Z,1002.9
2017-09-12T12:35:14.718Z,1002.9
2017-09-12T12:36:15.389Z,1002.8
2017-09-12T12:37:16.048Z,1002.8
2017-09-12T12:38:16.744Z,1002.9
2017-09-12T12:39:17.406Z,1002.8
2017-09-12T12:40:18.103Z,1002.8
2017-09-12T12:41:18.800Z,1002.8
2017-09-12T12:42:19.464Z,1002.8
2017-09-12T12:43:20.129Z,1002.8
2017-09-12T12:44:20.792Z,1002.8
2017-09-12T12:45:21.462Z,1002.8
2017-09-12T12:46:22.126Z,1002.8
2017-09-12T12:47:22.788Z,1002.8
2017-09-12T12:48:23.454Z,1002.8
2017-09-12T12:49:24.114Z,1002.8